Time;durP1;ratioP1;P1;durP2;ratioP2;P2;SDS_P1;SDS_P2;PMS_P1;PMS_P2;Temp;Humidity;BMP_temperature;BMP_pressure;BME280_temperature;BME280_humidity;BME280_pressure;Samples;Min_cycle;Max_cycle;Signal;HPM_P1;HPM_P2
2022/07/03 00:00:54;;;;;;;2.25;1.08;;;;;;;19.11;59.33;99857.47;12170911;19;20678;-78
2022/07/03 00:04:56;;;;;;;2.53;1.10;;;;;;;19.14;59.57;99856.03;12197501;19;20019;-78
2022/07/03 00:08:59;;;;;;;7.75;1.25;;;;;;;19.13;59.48;99865.53;12195099;19;20011;-79
2022/07/03 00:13:01;;;;;;;1.95;1.13;;;;;;;19.16;58.92;99867.72;12173364;19;20019;-78
2022/07/03 00:17:03;;;;;;;2.78;1.23;;;;;;;19.20;59.53;99865.16;12192798;19;20088;-79
2022/07/03 00:21:08;;;;;;;3.65;1.23;;;;;;;19.16;59.71;99866.91;12196422;19;20019;-79
2022/07/03 00:25:12;;;;;;;1.75;1.27;;;;;;;19.11;61.03;99860.25;12179396;19;20692;-79
2022/07/03 00:29:16;;;;;;;2.78;1.10;;;;;;;19.09;61.63;99868.09;12195887;19;20027;-79
2022/07/03 00:33:20;;;;;;;2.10;1.10;;;;;;;19.05;61.45;99866.25;12186583;19;20006;-80
2022/07/03 00:37:23;;;;;;;2.00;1.00;;;;;;;19.02;60.98;99859.28;12204094;19;20014;-78
2022/07/03 00:41:29;;;;;;;2.75;1.10;;;;;;;18.99;61.19;99859.91;12208705;19;20070;-78
2022/07/03 00:45:34;;;;;;;3.58;1.00;;;;;;;18.97;61.29;99853.78;12186190;19;20020;-80
2022/07/03 00:49:38;;;;;;;3.45;1.10;;;;;;;18.93;61.50;99858.34;12203225;19;20174;-78
2022/07/03 00:53:41;;;;;;;4.03;1.23;;;;;;;18.89;61.90;99857.28;12212772;19;20074;-81
2022/07/03 00:57:47;;;;;;;1.58;1.10;;;;;;;18.83;62.19;99850.97;12186457;19;20195;-79
2022/07/03 01:01:58;;;;;;;1.80;1.10;;;;;;;18.80;61.98;99854.34;12205516;19;20115;-80
2022/07/03 01:06:14;;;;;;;1.95;1.05;;;;;;;18.78;61.94;99855.78;12206097;19;20023;-78
2022/07/03 01:10:28;;;;;;;1.95;1.10;;;;;;;18.71;62.57;99855.28;12187786;19;20094;-79
2022/07/03 01:14:49;;;;;;;2.63;1.08;;;;;;;18.60;63.26;99869.41;12211296;19;20010;-78
2022/07/03 01:18:57;;;;;;;2.47;1.10;;;;;;;18.44;63.43;99859.59;12205628;19;20014;-79
2022/07/03 01:23:43;;;;;;;1.50;1.20;;;;;;;18.25;64.75;99854.00;12241920;19;20077;-82
2022/07/03 01:28:03;;;;;;;4.32;1.30;;;;;;;18.15;65.31;99865.31;12193148;19;20003;-84
2022/07/03 01:32:06;;;;;;;1.60;1.20;;;;;;;18.07;66.79;99868.75;12209407;19;20480;-80
2022/07/03 01:36:09;;;;;;;;;;;;;;;18.04;67.23;99864.59;12210519;19;20084;-81
2022/07/03 01:40:11;;;;;;;1.77;1.20;;;;;;;18.01;66.58;99865.19;12186786;19;20034;-79
2022/07/03 01:44:14;;;;;;;3.20;1.35;;;;;;;17.99;66.96;99859.09;12209722;19;20070;-79
2022/07/03 01:48:19;;;;;;;1.80;1.23;;;;;;;17.95;66.89;99852.47;12191415;19;20015;-79
2022/07/03 01:52:22;;;;;;;2.05;1.30;;;;;;;17.94;66.58;99856.38;12208458;19;20014;-79
2022/07/03 01:56:44;;;;;;;2.33;1.17;;;;;;;17.91;66.92;99860.59;12204598;19;20015;-79
2022/07/03 02:01:03;;;;;;;2.30;1.50;;;;;;;17.91;68.06;99848.63;12189336;19;20019;-81
2022/07/03 02:05:34;;;;;;;1.73;1.20;;;;;;;17.89;68.26;99836.94;12214460;19;20007;-79
2022/07/03 02:10:04;;;;;;;1.67;1.30;;;;;;;17.87;68.38;99837.22;12194467;19;20457;-79
2022/07/03 02:14:17;;;;;;;2.80;1.67;;;;;;;17.85;69.21;99828.34;12200429;19;20074;-78
2022/07/03 02:18:36;;;;;;;3.15;1.40;;;;;;;17.84;69.23;99831.41;12181081;19;20090;-79
2022/07/03 02:22:46;;;;;;;1.92;1.40;;;;;;;17.81;69.28;99827.25;12202081;19;20494;-78
2022/07/03 02:26:56;;;;;;;4.95;1.80;;;;;;;17.77;69.29;99827.03;12203882;19;20102;-79
2022/07/03 02:31:03;;;;;;;2.50;1.33;;;;;;;17.74;69.14;99827.59;12180156;19;20408;-81
2022/07/03 02:35:06;;;;;;;2.72;1.55;;;;;;;17.73;69.13;99837.09;12205600;19;20006;-78
2022/07/03 02:39:17;;;;;;;6.20;1.42;;;;;;;17.71;69.76;99847.69;12205884;19;20006;-80
2022/07/03 02:43:38;;;;;;;3.65;1.77;;;;;;;17.68;70.41;99845.50;12175852;19;20166;-82
2022/07/03 02:47:56;;;;;;;2.92;1.38;;;;;;;17.66;70.22;99847.75;12200261;19;20014;-79
2022/07/03 02:52:12;;;;;;;2.45;1.70;;;;;;;17.64;70.50;99851.94;12184945;19;20018;-78
2022/07/03 02:56:18;;;;;;;1.98;1.38;;;;;;;17.62;70.52;99854.22;12196459;19;20015;-78
2022/07/03 03:00:22;;;;;;;1.92;1.45;;;;;;;17.60;70.57;99856.47;12172541;19;20090;-78
2022/07/03 03:04:30;;;;;;;2.58;1.58;;;;;;;17.60;70.04;99870.38;12196442;19;20057;-79
2022/07/03 03:08:41;;;;;;;2.50;1.50;;;;;;;17.59;70.40;99869.56;12199429;19;20061;-78
2022/07/03 03:12:46;;;;;;;3.22;1.60;;;;;;;17.59;70.64;99866.78;12175346;19;20014;-79
2022/07/03 03:16:52;;;;;;;2.70;1.80;;;;;;;17.59;70.15;99864.00;12200652;19;20114;-78
2022/07/03 03:20:58;;;;;;;3.40;1.70;;;;;;;17.57;70.63;99866.22;12205646;19;20098;-79
2022/07/03 03:25:02;;;;;;;3.10;1.70;;;;;;;17.57;70.24;99874.59;12180598;19;20070;-79
2022/07/03 03:29:04;;;;;;;3.22;1.85;;;;;;;17.54;70.45;99881.59;12194828;19;20030;-79
2022/07/03 03:33:09;;;;;;;2.63;1.90;;;;;;;17.51;70.99;99889.69;12208291;19;20041;-77
2022/07/03 03:37:11;;;;;;;4.75;1.85;;;;;;;17.50;71.18;99893.63;12174073;19;20927;-77
2022/07/03 03:41:13;;;;;;;3.97;2.00;;;;;;;17.47;72.07;99886.69;12195461;19;20369;-79
2022/07/03 03:45:18;;;;;;;4.55;1.65;;;;;;;17.45;71.75;99894.50;12170426;19;20070;-78
2022/07/03 03:49:20;;;;;;;3.92;1.88;;;;;;;17.44;72.41;99892.00;12199287;19;20390;-78
2022/07/03 03:53:24;;;;;;;6.57;2.30;;;;;;;17.44;72.75;99892.84;12202691;19;20101;-77
2022/07/03 03:57:26;;;;;;;6.82;2.10;;;;;;;17.44;72.93;99897.59;12171007;19;20365;-78
2022/07/03 04:01:29;;;;;;;3.13;2.03;;;;;;;17.42;73.10;99899.81;12198447;19;20015;-78
2022/07/03 04:05:31;;;;;;;2.60;1.80;;;;;;;17.41;73.25;99898.16;12195318;19;20526;-77
2022/07/03 04:09:32;;;;;;;6.43;2.13;;;;;;;17.42;73.35;99899.81;12180800;19;20007;-78
2022/07/03 04:13:34;;;;;;;5.03;2.47;;;;;;;17.42;73.75;99903.44;12211549;19;20014;-79
2022/07/03 04:17:35;;;;;;;2.85;1.90;;;;;;;17.40;73.84;99902.06;12214262;19;20018;-78
2022/07/03 04:21:37;;;;;;;4.70;2.20;;;;;;;17.38;74.31;99907.94;12189994;19;20041;-78
2022/07/03 04:25:39;;;;;;;4.22;1.88;;;;;;;17.37;74.58;99911.88;12214837;19;20011;-78
2022/07/03 04:29:40;;;;;;;3.22;1.83;;;;;;;17.35;75.03;99910.50;12205152;19;20093;-79
2022/07/03 04:33:43;;;;;;;3.77;1.70;;;;;;;17.36;75.07;99906.56;12192961;19;20006;-81
2022/07/03 04:37:48;;;;;;;3.38;2.05;;;;;;;17.37;75.60;99911.00;12211058;19;20007;-78
2022/07/03 04:41:50;;;;;;;3.97;2.05;;;;;;;17.39;75.38;99915.16;12255467;19;20014;-81
2022/07/03 04:45:51;;;;;;;3.67;1.80;;;;;;;17.40;74.87;99916.00;12195360;19;20472;-82
2022/07/03 04:49:53;;;;;;;3.90;2.15;;;;;;;17.41;74.99;99917.66;12207741;19;20062;-79
2022/07/03 04:53:55;;;;;;;3.10;1.98;;;;;;;17.44;74.97;99931.84;12211553;19;20007;-79
2022/07/03 04:57:56;;;;;;;8.32;2.47;;;;;;;17.47;75.17;99930.44;12186065;19;20081;-79
2022/07/03 05:01:58;;;;;;;6.25;2.30;;;;;;;17.50;75.47;99919.53;12202365;19;20014;-78
2022/07/03 05:06:01;;;;;;;5.50;2.10;;;;;;;17.54;75.51;99925.34;12205947;19;20094;-78
2022/07/03 05:10:03;;;;;;;3.22;1.88;;;;;;;17.58;75.72;99915.28;12179100;19;20018;-80
2022/07/03 05:14:05;;;;;;;3.17;1.85;;;;;;;17.64;75.51;99922.47;12207310;19;20023;-77
2022/07/03 05:18:06;;;;;;;3.30;2.13;;;;;;;17.68;75.60;99906.81;12210959;19;20018;-77
2022/07/03 05:22:08;;;;;;;3.38;1.90;;;;;;;17.74;75.84;99922.34;12187225;19;20010;-79
2022/07/03 05:26:10;;;;;;;3.22;2.10;;;;;;;17.83;75.51;99919.78;12208225;19;20006;-77
2022/07/03 05:30:12;;;;;;;4.75;2.38;;;;;;;17.92;75.22;99923.56;12203756;19;20023;-80
2022/07/03 05:34:14;;;;;;;4.33;2.10;;;;;;;18.00;75.19;99924.91;12192237;19;20489;-81
2022/07/03 05:39:31;;;;;;;3.65;2.03;;;;;;;18.09;75.20;99927.88;12210512;19;20274;-78
2022/07/03 05:42:40;;;;;;;4.75;2.20;;;;;;;18.17;75.33;99933.63;12190858;19;20739;-77
2022/07/03 05:46:41;;;;;;;3.25;2.08;;;;;;;18.27;75.45;99929.03;12203111;19;20360;-77
2022/07/03 05:50:43;;;;;;;4.47;2.00;;;;;;;18.34;75.37;99932.28;12208357;19;20082;-77
2022/07/03 05:54:45;;;;;;;6.13;1.85;;;;;;;18.42;75.15;99940.81;12189256;19;20107;-77
2022/07/03 05:58:46;;;;;;;2.42;1.88;;;;;;;18.55;75.21;99930.88;12203854;19;20499;-79
2022/07/03 06:02:48;;;;;;;3.30;2.03;;;;;;;18.71;75.16;99939.03;12208538;19;20480;-82
2022/07/03 06:06:50;;;;;;;2.78;2.00;;;;;;;18.86;74.39;99939.69;12185379;19;20535;-78
2022/07/03 06:10:51;;;;;;;2.47;2.05;;;;;;;19.06;74.31;99935.75;12209116;19;20443;-78
2022/07/03 06:14:53;;;;;;;7.00;2.15;;;;;;;19.34;73.60;99939.50;12204950;19;20034;-78
2022/07/03 06:19:02;;;;;;;4.75;2.00;;;;;;;19.62;72.96;99941.53;12186166;19;20015;-78
2022/07/03 06:23:05;;;;;;;4.18;2.00;;;;;;;19.90;72.18;99937.69;12208081;19;20464;-80
2022/07/03 06:27:25;;;;;;;2.65;1.52;;;;;;;20.23;71.12;99938.44;12176023;19;20026;-77
2022/07/03 06:31:27;;;;;;;3.13;1.80;;;;;;;20.54;69.86;99935.00;12201633;19;20050;-77
2022/07/03 06:35:29;;;;;;;3.90;1.73;;;;;;;20.77;69.19;99943.47;12209664;19;20484;-77
2022/07/03 06:39:31;;;;;;;3.90;1.70;;;;;;;21.05;68.25;99933.00;12187638;19;20074;-78
2022/07/03 06:43:34;;;;;;;3.40;1.60;;;;;;;21.32;66.63;99940.47;12205837;19;20006;-79
2022/07/03 06:47:37;;;;;;;2.10;1.40;;;;;;;21.68;64.56;99943.22;12193799;19;20006;-77
2022/07/03 06:51:39;;;;;;;2.92;1.58;;;;;;;21.95;63.03;99946.97;12184333;19;20035;-79
2022/07/03 06:55:41;;;;;;;4.65;1.70;;;;;;;22.19;61.22;99944.66;12206055;19;20357;-79
2022/07/03 06:59:43;;;;;;;2.15;1.50;;;;;;;22.43;60.42;99937.81;12200829;19;20374;-77
2022/07/03 07:03:45;;;;;;;3.42;1.98;;;;;;;22.64;58.73;99938.03;12173348;19;20011;-79
2022/07/03 07:07:46;;;;;;;4.65;1.65;;;;;;;22.88;58.17;99955.25;12204062;19;20504;-79
2022/07/03 07:11:48;;;;;;;5.60;1.83;;;;;;;23.11;57.61;99947.53;12196405;19;20009;-81
2022/07/03 07:15:50;;;;;;;2.55;1.45;;;;;;;23.32;57.16;99944.88;12176423;19;20030;-79
2022/07/03 07:19:51;;;;;;;2.67;1.67;;;;;;;23.56;55.83;99943.50;12170843;19;20014;-79
2022/07/03 07:23:53;;;;;;;6.35;1.77;;;;;;;23.83;55.02;99939.50;12189416;19;20027;-78
2022/07/03 07:27:55;;;;;;;3.08;1.67;;;;;;;24.06;54.54;99940.91;12171365;19;20031;-77
2022/07/03 07:31:56;;;;;;;6.03;1.88;;;;;;;24.34;53.22;99951.72;12203757;19;20518;-78
2022/07/03 07:35:58;;;;;;;2.80;1.70;;;;;;;24.59;53.13;99941.50;12209049;19;20021;-77
2022/07/03 07:40:00;;;;;;;2.42;1.60;;;;;;;24.77;52.44;99948.66;12169379;19;20016;-77
2022/07/03 07:44:02;;;;;;;4.03;1.60;;;;;;;24.98;51.85;99945.84;12190314;19;20014;-78
2022/07/03 07:48:04;;;;;;;3.20;1.50;;;;;;;25.15;51.05;99949.75;12202914;19;20003;-79
2022/07/03 07:52:06;;;;;;;2.33;1.58;;;;;;;25.27;50.39;99946.19;12179473;19;20437;-77
2022/07/03 07:56:07;;;;;;;4.45;1.50;;;;;;;25.46;50.45;99950.16;12203796;19;20085;-80
2022/07/03 08:00:11;;;;;;;1.90;1.50;;;;;;;25.63;48.75;99951.13;12214223;19;20074;-81
2022/07/03 08:08:33;;;;;;;2.60;1.88;;;;;;;26.02;48.57;99951.72;12202369;19;20070;-82
2022/07/03 08:12:35;;;;;;;2.37;1.60;;;;;;;26.18;48.11;99954.72;12184466;19;20006;-81
2022/07/03 08:16:38;;;;;;;2.28;1.30;;;;;;;26.33;46.92;99956.84;12195534;19;20007;-81
2022/07/03 08:20:40;;;;;;;5.40;1.85;;;;;;;26.51;47.14;99955.44;12199233;19;20006;-81
2022/07/03 08:24:42;;;;;;;2.50;1.67;;;;;;;26.77;46.69;99957.91;12175374;19;20038;-80
2022/07/03 08:28:45;;;;;;;3.65;1.85;;;;;;;26.90;44.88;99947.41;12192561;19;20496;-81
2022/07/03 08:32:48;;;;;;;2.17;1.50;;;;;;;27.09;45.91;99943.94;12196330;19;20765;-80
2022/07/03 08:36:50;;;;;;;3.25;1.65;;;;;;;27.31;45.23;99944.59;12177548;19;20073;-81
2022/07/03 08:40:51;;;;;;;2.10;1.50;;;;;;;27.40;44.61;99946.09;12194040;19;20070;-81
2022/07/03 08:44:54;;;;;;;2.70;1.70;;;;;;;27.60;44.63;99938.56;12187948;19;20015;-82
2022/07/03 08:48:59;;;;;;;3.47;2.10;;;;;;;27.69;43.31;99947.75;12179814;19;20023;-79
2022/07/03 08:53:03;;;;;;;2.88;1.75;;;;;;;27.72;43.29;99946.16;12201434;19;20514;-79
2022/07/03 08:57:05;;;;;;;3.42;1.58;;;;;;;27.76;42.68;99946.28;12213603;19;20539;-80
2022/07/03 09:01:07;;;;;;;2.13;1.65;;;;;;;27.81;41.74;99946.88;12190746;19;20066;-81
2022/07/03 09:05:10;;;;;;;2.55;1.75;;;;;;;28.09;41.88;99941.16;12212188;19;20512;-81
2022/07/03 09:09:12;;;;;;;2.85;1.75;;;;;;;28.24;41.39;99941.50;12208952;19;20084;-81
2022/07/03 09:13:14;;;;;;;3.40;1.50;;;;;;;28.33;40.50;99939.31;12189629;19;20082;-81
2022/07/03 09:17:16;;;;;;;3.78;1.17;;;;;;;28.44;39.47;99940.44;12211450;19;20011;-80
2022/07/03 09:21:25;;;;;;;2.22;1.30;;;;;;;28.18;38.22;99938.13;12210557;19;20058;-82
2022/07/03 09:25:28;;;;;;;2.22;1.58;;;;;;;28.13;39.35;99935.56;12190306;19;20575;-82
2022/07/03 09:54:03;;;;;;;2.33;1.40;;;;;;;29.47;36.07;99929.78;12209269;19;20030;-80
2022/07/03 09:58:05;;;;;;;3.30;1.38;;;;;;;29.73;36.84;99926.28;12191386;19;20011;-82
2022/07/03 10:02:08;;;;;;;3.72;1.20;;;;;;;29.86;35.32;99919.19;12195375;19;20011;-81
2022/07/03 10:06:10;;;;;;;2.35;1.67;;;;;;;29.99;35.54;99919.84;12213759;19;20551;-83
2022/07/03 10:10:16;;;;;;;3.15;1.70;;;;;;;30.28;34.94;99915.53;12188419;19;20090;-83
2022/07/03 10:14:21;;;;;;;2.10;1.30;;;;;;;30.38;34.83;99917.72;12203042;19;20468;-83
2022/07/03 10:18:30;;;;;;;4.28;1.50;;;;;;;30.58;34.87;99917.59;12192053;19;20034;-84
2022/07/03 10:22:37;;;;;;;2.50;1.25;;;;;;;30.60;34.62;99912.34;12215380;19;20569;-81
2022/07/03 10:26:40;;;;;;;3.53;1.50;;;;;;;30.76;34.57;99909.34;12210721;19;20661;-84
2022/07/03 10:30:51;;;;;;;3.75;1.70;;;;;;;30.97;33.40;99911.72;12180716;19;20010;-85
2022/07/03 10:35:09;;;;;;;2.58;1.60;;;;;;;31.13;32.73;99905.81;12206804;19;20010;-84
2022/07/03 10:44:52;;;;;;;3.35;1.38;;;;;;;31.38;31.99;99897.59;12206296;19;20082;-83
2022/07/03 10:49:13;;;;;;;2.85;0.90;;;;;;;31.70;30.30;99904.47;12189175;19;20074;-85
2022/07/03 10:53:42;;;;;;;3.72;0.90;;;;;;;31.82;29.81;99911.09;12215995;19;20498;-85
2022/07/03 10:58:07;;;;;;;1.35;0.90;;;;;;;32.34;29.29;99894.91;12189612;19;20077;-84
2022/07/03 11:02:47;;;;;;;1.73;1.17;;;;;;;32.49;28.54;99905.25;12214416;19;20431;-84
2022/07/03 11:06:59;;;;;;;2.35;1.08;;;;;;;32.55;29.13;99892.25;12196308;19;20010;-83
2022/07/03 11:11:54;;;;;;;1.50;1.02;;;;;;;32.59;28.90;99887.38;12215707;19;20022;-84
2022/07/03 11:15:30;;;;;;;5.22;1.10;;;;;;;32.42;28.58;99886.03;12191262;19;20007;-83
2022/07/03 11:19:32;;;;;;;2.40;0.93;;;;;;;32.08;29.12;99873.13;12213656;19;20430;-83
2022/07/03 11:23:47;;;;;;;1.40;0.80;;;;;;;31.94;28.50;99873.78;12208311;19;20015;-82
2022/07/03 11:27:49;;;;;;;4.43;0.98;;;;;;;32.42;28.61;99862.38;12192506;19;20634;-82
2022/07/03 11:31:51;;;;;;;;;;;;;;;32.63;27.97;99851.16;12233342;19;20010;-81
2022/07/03 11:36:04;;;;;;;2.40;0.90;;;;;;;32.80;26.95;99852.44;12242463;19;19914;-84
2022/07/03 11:40:07;;;;;;;1.85;0.80;;;;;;;32.76;26.77;99853.66;12188287;19;20035;-85
2022/07/03 11:44:15;;;;;;;2.25;0.80;;;;;;;32.99;26.83;99854.22;12200928;19;20099;-82
2022/07/03 11:48:25;;;;;;;1.50;0.90;;;;;;;33.25;25.87;99850.19;12216496;19;20019;-83
2022/07/03 11:52:33;;;;;;;5.13;0.85;;;;;;;33.37;25.28;99843.31;12181394;19;20014;-83
2022/07/03 11:56:38;;;;;;;6.03;0.98;;;;;;;33.28;25.65;99842.88;12200777;19;20006;-82
2022/07/03 12:00:40;;;;;;;3.47;0.85;;;;;;;33.22;24.89;99833.88;12186943;19;20015;-81
2022/07/03 12:04:42;;;;;;;1.33;0.80;;;;;;;33.37;24.97;99849.00;12200703;19;20022;-83
2022/07/03 12:08:47;;;;;;;2.25;0.80;;;;;;;33.75;24.61;99841.78;12206448;19;20007;-82
2022/07/03 12:12:49;;;;;;;1.13;0.55;;;;;;;33.83;24.10;99839.75;12181846;19;20006;-82
2022/07/03 12:16:52;;;;;;;1.67;0.90;;;;;;;33.96;23.78;99825.84;12205248;19;20091;-82
2022/07/03 12:20:54;;;;;;;2.78;1.00;;;;;;;34.36;23.97;99836.09;12202516;19;20102;-82
2022/07/03 12:25:16;;;;;;;4.40;0.90;;;;;;;34.94;22.82;99846.16;12179372;19;20011;-81
2022/07/03 12:29:19;;;;;;;2.08;1.05;;;;;;;35.77;22.04;99835.09;12212427;19;20011;-83
2022/07/03 12:33:21;;;;;;;2.40;1.13;;;;;;;36.70;21.29;99822.78;12188733;19;20579;-83
2022/07/03 12:37:37;;;;;;;2.13;1.10;;;;;;;37.68;20.98;99810.84;12208742;19;20013;-84
2022/07/03 12:41:49;;;;;;;1.77;1.17;;;;;;;37.92;19.61;99818.22;12221721;19;20334;-84
2022/07/03 12:45:53;;;;;;;1.90;1.20;;;;;;;38.44;20.87;99805.44;12186738;19;20011;-83
2022/07/03 12:50:00;;;;;;;1.50;1.25;;;;;;;39.17;19.08;99809.28;12201064;19;20476;-82
2022/07/03 12:54:06;;;;;;;3.00;1.20;;;;;;;39.25;18.77;99804.19;12206392;19;20015;-83
2022/07/03 13:02:49;;;;;;;2.67;1.50;;;;;;;40.87;17.67;99804.59;12216125;19;20014;-84
2022/07/03 13:07:00;;;;;;;2.63;1.20;;;;;;;41.21;17.41;99799.03;12193706;19;20010;-84
2022/07/03 13:11:03;;;;;;;1.55;1.08;;;;;;;41.42;16.16;99800.44;12214275;19;20020;-83
2022/07/03 13:15:08;;;;;;;4.32;1.20;;;;;;;41.36;16.30;99793.59;12204928;19;20020;-84
2022/07/03 13:19:12;;;;;;;2.05;1.00;;;;;;;41.44;16.50;99779.75;12194819;19;20402;-86
2022/07/03 13:23:20;;;;;;;;;;;;;;;41.52;16.65;99786.09;12219594;19;20050;-82
2022/07/03 13:27:22;;;;;;;1.05;0.90;;;;;;;42.45;16.24;99789.56;12186421;19;19911;-85
2022/07/03 13:31:25;;;;;;;2.97;0.82;;;;;;;42.59;15.90;99787.41;12201549;19;20017;-84
2022/07/03 13:35:27;;;;;;;2.88;1.50;;;;;;;42.55;15.88;99776.75;12212616;19;20002;-83
2022/07/03 13:39:29;;;;;;;3.72;1.27;;;;;;;42.46;15.22;99775.88;12182308;19;20006;-85
2022/07/03 13:43:31;;;;;;;2.33;1.40;;;;;;;42.81;15.78;99779.56;12210073;19;20027;-83
2022/07/03 13:47:32;;;;;;;1.88;1.00;;;;;;;43.06;15.28;99763.28;12204459;19;20011;-83
2022/07/03 13:51:34;;;;;;;3.63;0.90;;;;;;;43.33;14.44;99772.13;12185272;19;20011;-83
2022/07/03 13:55:36;;;;;;;3.30;1.17;;;;;;;43.45;14.35;99765.41;12214265;19;20006;-83
2022/07/03 13:59:38;;;;;;;2.65;1.10;;;;;;;44.12;14.34;99754.34;12199946;19;20006;-85
2022/07/03 14:03:39;;;;;;;3.42;1.00;;;;;;;45.10;13.99;99775.59;12187842;19;20732;-83
2022/07/03 14:07:48;;;;;;;1.45;0.90;;;;;;;45.16;13.46;99769.97;12211830;19;20014;-82
2022/07/03 14:11:57;;;;;;;1.80;0.80;;;;;;;45.42;13.00;99755.78;12203576;19;20014;-85
2022/07/03 14:16:00;;;;;;;1.77;0.90;;;;;;;45.38;13.20;99752.25;12187416;19;20018;-83
2022/07/03 14:20:07;;;;;;;1.25;0.90;;;;;;;45.41;13.26;99745.44;12206303;19;20010;-84
2022/07/03 14:24:29;;;;;;;2.33;0.93;;;;;;;45.73;13.11;99735.09;12181157;19;20381;-84
2022/07/03 14:32:51;;;;;;;1.60;1.05;;;;;;;46.10;12.31;99738.56;12211663;19;20014;-84
2022/07/03 14:36:55;;;;;;;1.52;1.00;;;;;;;45.23;12.64;99744.22;12184107;19;20436;-83
2022/07/03 14:41:00;;;;;;;1.33;0.98;;;;;;;45.95;12.63;99731.09;12203920;19;20017;-84
2022/07/03 14:45:01;;;;;;;3.42;1.00;;;;;;;45.59;12.52;99733.72;12212297;19;20015;-83
2022/07/03 14:49:03;;;;;;;3.33;0.98;;;;;;;45.57;12.52;99742.13;12185953;19;20030;-84
2022/07/03 14:53:08;;;;;;;1.30;0.85;;;;;;;46.23;12.30;99734.59;12201684;19;20017;-84
2022/07/03 14:57:44;;;;;;;1.45;0.80;;;;;;;46.91;11.59;99725.88;12208520;19;20460;-84
2022/07/03 15:01:56;;;;;;;2.28;0.80;;;;;;;47.18;11.35;99733.53;12110901;19;2004330;-84
2022/07/03 15:06:00;;;;;;;3.05;0.70;;;;;;;44.50;12.46;99741.44;12206802;19;20030;-86
2022/07/03 15:10:04;;;;;;;1.45;0.88;;;;;;;41.86;14.42;99724.63;12215838;19;20003;-83
2022/07/03 15:14:08;;;;;;;5.20;1.08;;;;;;;41.64;14.34;99730.31;12240711;19;20736;-82
2022/07/03 15:18:13;;;;;;;3.17;0.98;;;;;;;41.16;15.08;99729.41;12216903;19;20006;-85
2022/07/03 15:22:19;;;;;;;3.40;0.90;;;;;;;42.07;14.32;99729.69;12193048;19;20461;-85
2022/07/03 15:26:22;;;;;;;2.08;1.00;;;;;;;41.38;14.75;99727.47;12216789;19;20011;-85
2022/07/03 15:30:25;;;;;;;1.27;0.90;;;;;;;39.71;16.00;99719.47;12191712;19;20014;-85
2022/07/03 15:34:26;;;;;;;1.65;1.13;;;;;;;39.18;17.04;99715.84;12211650;19;20031;-85
2022/07/03 15:39:06;;;;;;;1.50;1.00;;;;;;;38.02;17.95;99713.72;12216446;19;20023;-84
2022/07/03 15:43:24;;;;;;;3.23;1.00;;;;;;;36.59;18.78;99721.66;12220924;19;20017;-85
2022/07/03 15:47:50;;;;;;;4.95;1.17;;;;;;;35.49;19.27;99721.47;12214867;19;20468;-84
2022/07/03 15:51:58;;;;;;;3.22;1.23;;;;;;;34.64;20.25;99717.09;12193419;19;20011;-83
2022/07/03 15:56:03;;;;;;;2.80;1.30;;;;;;;33.74;21.21;99719.31;12209543;19;20011;-84
2022/07/03 16:00:20;;;;;;;1.85;1.10;;;;;;;33.01;21.69;99708.22;12217273;19;20103;-83
2022/07/03 16:04:28;;;;;;;2.28;0.90;;;;;;;32.90;22.12;99693.91;12205356;19;20007;-84
2022/07/03 16:08:32;;;;;;;7.13;1.23;;;;;;;32.75;23.21;99706.47;12233613;19;20031;-84
2022/07/03 16:12:34;;;;;;;5.53;1.10;;;;;;;32.32;22.81;99698.56;12200020;19;20027;-83
2022/07/03 16:16:38;;;;;;;5.22;1.25;;;;;;;32.35;22.63;99694.09;12222154;19;20031;-84
2022/07/03 16:20:41;;;;;;;3.20;1.13;;;;;;;32.31;23.31;99699.78;12227941;19;20467;-84
2022/07/03 16:24:45;;;;;;;2.35;0.80;;;;;;;32.39;23.41;99701.47;12199191;19;20431;-84
2022/07/03 16:28:47;;;;;;;3.50;0.93;;;;;;;32.47;23.40;99690.09;12220726;19;20061;-84
2022/07/03 16:32:49;;;;;;;;;;;;;;;32.34;23.72;99695.31;12228963;19;20011;-84
2022/07/03 16:36:55;;;;;;;1.48;0.90;;;;;;;32.44;22.93;99698.22;12200885;19;19914;-85
2022/07/03 16:41:02;;;;;;;3.42;0.93;;;;;;;32.32;23.47;99684.31;12211447;19;20014;-84
2022/07/03 16:45:08;;;;;;;2.25;1.10;;;;;;;32.17;24.25;99691.16;12221182;19;20006;-85
2022/07/03 16:49:12;;;;;;;1.60;0.90;;;;;;;32.01;23.82;99680.09;12201797;19;20010;-82
2022/07/03 16:53:17;;;;;;;4.63;1.05;;;;;;;31.56;24.04;99682.16;12217435;19;20023;-83
2022/07/03 16:57:21;;;;;;;1.10;0.80;;;;;;;31.41;23.90;99686.13;12211523;19;20402;-81
2022/07/03 17:01:23;;;;;;;3.78;0.90;;;;;;;31.16;23.45;99678.16;12188859;19;20019;-83
2022/07/03 17:05:26;;;;;;;4.55;0.65;;;;;;;30.87;23.88;99683.56;12220038;19;20006;-84
2022/07/03 17:09:32;;;;;;;4.57;0.80;;;;;;;30.83;23.83;99681.91;12188154;19;20011;-83
2022/07/03 17:13:35;;;;;;;1.38;0.80;;;;;;;30.77;23.88;99678.56;12216413;19;20018;-83
2022/07/03 17:17:50;;;;;;;2.07;0.60;;;;;;;30.66;23.51;99680.44;12206731;19;20014;-82
2022/07/03 17:21:54;;;;;;;2.03;0.80;;;;;;;30.58;23.91;99687.25;12186943;19;20109;-83
2022/07/03 17:26:20;;;;;;;2.03;0.80;;;;;;;30.58;23.79;99675.88;12213608;19;20011;-83
2022/07/03 17:30:32;;;;;;;2.65;0.90;;;;;;;30.62;24.25;99673.91;12209251;19;20030;-84
2022/07/03 17:34:35;;;;;;;;;;;;;;;30.55;24.11;99673.81;12192081;19;20014;-84
2022/07/03 17:38:40;;;;;;;1.65;0.70;;;;;;;30.88;24.01;99671.00;12212639;19;19918;-83
2022/07/03 17:42:45;;;;;;;4.50;0.80;;;;;;;30.76;24.37;99676.94;12182731;19;20047;-83
2022/07/03 17:46:53;;;;;;;1.60;0.80;;;;;;;30.28;25.15;99676.78;12205470;19;20516;-83
2022/07/03 17:50:56;;;;;;;1.77;0.85;;;;;;;29.98;24.97;99669.03;12211368;19;20033;-83
2022/07/03 17:54:59;;;;;;;;;;;;;;;29.79;25.62;99669.16;12187078;19;20099;-83
2022/07/03 17:59:03;;;;;;;3.30;0.80;;;;;;;29.69;25.90;99664.13;12208060;19;19911;-82
2022/07/03 18:03:05;;;;;;;1.58;0.73;;;;;;;29.61;25.90;99666.00;12209296;19;20009;-83
2022/07/03 18:07:07;;;;;;;;;;;;;;;29.58;25.57;99660.28;12173922;19;20014;-83
2022/07/03 18:11:17;;;;;;;2.15;0.60;;;;;;;29.55;26.33;99661.03;12195719;19;20333;-84
2022/07/03 18:15:31;;;;;;;2.50;0.90;;;;;;;29.41;26.58;99665.28;12207916;19;20094;-82
2022/07/03 18:19:34;;;;;;;1.25;0.70;;;;;;;29.28;27.13;99661.03;12179785;19;20500;-83
2022/07/03 18:23:41;;;;;;;1.70;0.70;;;;;;;29.12;26.90;99660.31;12210498;19;20431;-83
2022/07/03 18:27:45;;;;;;;2.28;0.93;;;;;;;28.88;27.01;99656.63;12180538;19;20003;-83
2022/07/03 18:31:47;;;;;;;0.80;0.60;;;;;;;28.71;27.40;99651.47;12197974;19;20023;-83
2022/07/03 18:35:50;;;;;;;1.63;0.70;;;;;;;28.56;27.75;99654.03;12205805;19;20006;-82
2022/07/03 18:39:52;;;;;;;1.83;0.85;;;;;;;28.42;27.71;99652.91;12165623;19;20010;-83
2022/07/03 18:43:57;;;;;;;4.78;0.90;;;;;;;28.30;27.91;99659.53;12204567;19;20010;-84
2022/07/03 18:47:58;;;;;;;1.65;0.70;;;;;;;28.21;28.18;99658.94;12212542;19;20022;-82
2022/07/03 18:52:04;;;;;;;3.70;0.88;;;;;;;28.10;28.42;99658.69;12238600;19;19999;-82
2022/07/03 18:56:10;;;;;;;2.13;0.80;;;;;;;27.96;29.01;99662.03;12208267;19;20010;-83
2022/07/03 19:00:13;;;;;;;3.10;0.75;;;;;;;27.81;29.25;99660.06;12206078;19;20002;-83
2022/07/03 19:04:28;;;;;;;3.78;0.80;;;;;;;27.65;30.01;99654.44;12179290;19;20007;-83
2022/07/03 19:08:51;;;;;;;1.00;0.80;;;;;;;27.53;30.63;99654.53;12209418;19;20007;-83
2022/07/03 19:13:02;;;;;;;4.38;0.85;;;;;;;27.34;30.68;99652.47;12186899;19;20034;-84
2022/07/03 19:17:07;;;;;;;1.87;0.77;;;;;;;27.20;31.04;99659.41;12199274;19;20019;-83
2022/07/03 19:21:10;;;;;;;2.13;0.80;;;;;;;27.05;31.61;99651.72;12210456;19;20007;-83
2022/07/03 19:25:12;;;;;;;2.35;0.75;;;;;;;26.85;32.25;99656.44;12187236;19;20011;-83
2022/07/03 19:29:16;;;;;;;2.83;1.00;;;;;;;26.57;32.96;99667.81;12207859;19;20009;-82
2022/07/03 19:33:19;;;;;;;2.70;1.00;;;;;;;26.27;34.00;99679.44;12209262;19;20200;-84
2022/07/03 19:37:20;;;;;;;;;;;;;;;26.22;33.86;99688.16;12191203;19;20070;-84
2022/07/03 19:41:22;;;;;;;2.42;0.95;;;;;;;26.17;34.08;99699.69;12208434;19;19922;-83
2022/07/03 19:45:24;;;;;;;1.92;1.17;;;;;;;26.16;34.61;99709.34;12198608;19;20021;-83
2022/07/03 19:49:26;;;;;;;5.43;1.30;;;;;;;26.05;35.61;99716.66;12183706;19;20023;-82